createdAt,value
2022-10-22T00:00:50.870Z,98323.84
2022-10-22T00:01:54.560Z,98323.03
2022-10-22T00:02:57.478Z,98315.34
2022-10-22T00:04:02.454Z,98318.19
2022-10-22T00:05:06.286Z,98314.03
2022-10-22T00:06:12.301Z,98311.44
2022-10-22T00:07:15.223Z,98317.59
2022-10-22T00:08:19.221Z,98321.13
2022-10-22T00:09:21.914Z,98322.91
2022-10-22T00:10:25.726Z,98317.94
2022-10-22T00:11:28.543Z,98315.59
2022-10-22T00:12:32.302Z,98316.41
2022-10-22T00:13:35.101Z,98320.66
2022-10-22T00:14:39.001Z,98315.47
2022-10-22T00:15:41.642Z,98324.91
2022-10-22T00:16:45.770Z,98317.84
2022-10-22T00:17:49.856Z,98316.16
2022-10-22T00:18:53.674Z,98318.75
2022-10-22T00:19:56.494Z,98322.09
2022-10-22T00:21:00.602Z,98312.88
2022-10-22T00:22:07.324Z,98313.81
2022-10-22T00:23:11.155Z,98314.78
2022-10-22T00:24:16.904Z,98310.50
2022-10-22T00:25:20.783Z,98317.59
2022-10-22T00:26:23.831Z,98312.53
2022-10-22T00:27:27.804Z,98315.22
2022-10-22T00:28:30.571Z,98318.06
2022-10-22T00:29:34.717Z,98313.91
2022-10-22T00:30:37.479Z,98321.81
2022-10-22T00:31:41.452Z,98314.25
2022-10-22T00:32:44.359Z,98316.03
2022-10-22T00:33:48.643Z,98316.16
2022-10-22T00:34:54.401Z,98311.91
2022-10-22T00:35:58.871Z,98305.91
2022-10-22T00:37:01.753Z,98311.19
2022-10-22T00:38:07.270Z,98306.13
2022-10-22T00:39:11.493Z,98302.91
2022-10-22T00:40:14.379Z,98309.06
2022-10-22T00:41:18.265Z,98306.72
2022-10-22T00:42:23.105Z,98313.53
2022-10-22T00:43:27.012Z,98311.06
2022-10-22T00:45:06.764Z,98310.94
2022-10-22T00:46:10.505Z,98314.69
2022-10-22T00:47:13.932Z,98310.47
2022-10-22T00:48:20.993Z,98304.56
2022-10-22T00:49:23.731Z,98303.97
2022-10-22T00:50:30.827Z,98303.16
2022-10-22T00:51:36.515Z,98299.13
2022-10-22T00:52:41.024Z,98302.88
2022-10-22T00:53:48.562Z,98305.72
2022-10-22T00:54:52.763Z,98301.78
2022-10-22T00:55:55.890Z,98302.16
2022-10-22T00:56:59.895Z,98304.97
2022-10-22T00:58:03.282Z,98302.69
2022-10-22T01:00:15.633Z,98297.34
2022-10-22T01:01:21.749Z,98295.91
2022-10-22T01:02:24.873Z,98296.28
2022-10-22T01:03:28.571Z,98288.72
2022-10-22T01:04:31.299Z,98290.59
2022-10-22T01:05:42.962Z,98286.56
2022-10-22T01:06:45.681Z,98290.19
2022-10-22T01:07:52.524Z,98286.91
2022-10-22T01:09:05.711Z,98295.84
2022-10-22T01:10:14.752Z,98293.66
2022-10-22T01:11:22.801Z,98299.16
2022-10-22T01:12:35.463Z,98297.84
2022-10-22T01:13:48.784Z,98297.13
2022-10-22T01:15:06.972Z,98291.00
2022-10-22T01:16:12.212Z,98293.50
2022-10-22T01:18:28.743Z,98301.88
2022-10-22T01:19:50.913Z,98300.22
2022-10-22T01:21:03.253Z,98302.31
2022-10-22T01:22:11.332Z,98307.81
2022-10-22T01:23:24.642Z,98299.44
2022-10-22T01:24:58.150Z,98305.88
2022-10-22T01:26:05.754Z,98307.03
2022-10-22T01:27:17.785Z,98308.09
2022-10-22T01:28:26.801Z,98305.69
2022-10-22T01:29:35.788Z,98302.59
2022-10-22T01:30:40.323Z,98299.41
2022-10-22T01:31:46.782Z,98300.56
2022-10-22T01:32:52.982Z,98300.06
2022-10-22T01:33:56.070Z,98305.31
2022-10-22T01:35:04.664Z,98306.47
2022-10-22T01:36:08.721Z,98305.97
2022-10-22T01:37:12.748Z,98302.88
2022-10-22T01:38:18.259Z,98296.25
2022-10-22T01:39:23.513Z,98293.97
2022-10-22T01:40:28.142Z,98294.09
2022-10-22T01:41:31.873Z,98297.72
2022-10-22T01:42:35.652Z,98297.81
2022-10-22T01:43:38.433Z,98293.59
2022-10-22T01:44:44.000Z,98292.66
2022-10-22T01:45:48.818Z,98291.81
2022-10-22T01:46:55.513Z,98289.31
2022-10-22T01:48:05.708Z,98297.19
2022-10-22T01:49:19.123Z,98292.97
2022-10-22T01:50:35.058Z,98290.47
2022-10-22T01:51:47.274Z,98295.53
2022-10-22T01:53:11.962Z,98289.44
2022-10-22T01:54:23.259Z,98286.03
2022-10-22T01:55:30.543Z,98277.44
2022-10-22T01:56:45.862Z,98279.19
2022-10-22T01:57:53.697Z,98290.47
2022-10-22T01:59:05.873Z,98277.63
2022-10-22T02:00:12.001Z,98271.63
2022-10-22T02:01:20.001Z,98275.16
2022-10-22T02:02:31.630Z,98280.34
2022-10-22T02:03:39.054Z,98275.97
2022-10-22T02:04:43.989Z,98280.34
2022-10-22T02:05:50.841Z,98281.03
2022-10-22T02:06:55.941Z,98281.97
2022-10-22T02:08:04.531Z,98281.16
2022-10-22T02:09:08.577Z,98273.50
2022-10-22T02:10:13.989Z,98280.44
2022-10-22T02:11:17.040Z,98280.53
2022-10-22T02:12:22.543Z,98281.59
2022-10-22T02:13:28.316Z,98272.16
2022-10-22T02:14:33.683Z,98270.59
2022-10-22T02:15:39.145Z,98274.94
2022-10-22T02:16:45.773Z,98267.31
2022-10-22T02:17:49.213Z,98275.06
2022-10-22T02:18:56.191Z,98272.38
2022-10-22T02:20:02.361Z,98264.50
2022-10-22T02:22:10.027Z,98272.16
2022-10-22T02:23:14.313Z,98271.34
2022-10-22T02:24:17.683Z,98268.00
2022-10-22T02:25:23.412Z,98269.78
2022-10-22T02:26:36.357Z,98269.06
2022-10-22T02:27:45.557Z,98269.16
2022-10-22T02:28:59.023Z,98269.38
2022-10-22T02:30:06.537Z,98270.41
2022-10-22T02:31:14.034Z,98273.09
2022-10-22T02:32:20.784Z,98262.03
2022-10-22T02:33:27.073Z,98268.13
2022-10-22T02:34:33.229Z,98271.88
2022-10-22T02:35:36.515Z,98266.78
2022-10-22T02:36:41.245Z,98270.41
2022-10-22T02:37:44.095Z,98266.19
2022-10-22T02:38:49.232Z,98268.13
2022-10-22T02:39:53.180Z,98276.81
2022-10-22T02:40:56.992Z,98271.53
2022-10-22T02:42:01.554Z,98272.25
2022-10-22T02:43:06.571Z,98265.44
2022-10-22T02:44:10.625Z,98264.59
2022-10-22T02:45:14.452Z,98256.97
2022-10-22T02:46:18.471Z,98250.22
2022-10-22T02:47:22.364Z,98252.09
2022-10-22T02:48:25.035Z,98253.03
2022-10-22T02:49:29.293Z,98256.56
2022-10-22T02:50:32.092Z,98255.09
2022-10-22T02:51:35.890Z,98255.28
2022-10-22T02:52:39.336Z,98270.91
2022-10-22T02:53:43.311Z,98256.41
2022-10-22T02:54:46.213Z,98265.22
2022-10-22T02:55:49.974Z,98265.41
2022-10-22T02:56:53.332Z,98262.13
2022-10-22T02:57:57.092Z,98266.56
2022-10-22T02:58:59.782Z,98276.16
2022-10-22T03:00:03.571Z,98272.03
2022-10-22T03:01:06.571Z,98273.88
2022-10-22T03:02:11.982Z,98274.81
2022-10-22T03:03:14.772Z,98281.84
2022-10-22T03:04:20.422Z,98273.28
2022-10-22T03:05:24.847Z,98288.84
2022-10-22T03:06:28.583Z,98289.91
2022-10-22T03:07:31.869Z,98301.16
2022-10-22T03:08:36.211Z,98298.78
2022-10-22T03:09:39.382Z,98291.13
2022-10-22T03:10:43.362Z,98294.00
2022-10-22T03:11:46.106Z,98289.03
2022-10-22T03:12:50.414Z,98283.13
2022-10-22T03:13:53.113Z,98295.13
2022-10-22T03:14:56.883Z,98291.72
2022-10-22T03:15:59.621Z,98288.31
2022-10-22T03:17:07.721Z,98295.31
2022-10-22T03:18:14.973Z,98297.19
2022-10-22T03:19:18.821Z,98295.53
2022-10-22T03:20:21.524Z,98295.72
2022-10-22T03:21:32.093Z,98301.91
2022-10-22T03:22:36.194Z,98295.16
2022-10-22T03:23:44.201Z,98305.59
2022-10-22T03:24:49.142Z,98304.03
2022-10-22T03:25:52.937Z,98303.13
2022-10-22T03:26:55.759Z,98304.97
2022-10-22T03:28:03.321Z,98300.63
2022-10-22T03:29:06.359Z,98294.63
2022-10-22T03:30:11.213Z,98292.88
2022-10-22T03:31:13.932Z,98289.47
2022-10-22T03:32:17.751Z,98294.63
2022-10-22T03:33:21.902Z,98286.16
2022-10-22T03:34:25.905Z,98288.75
2022-10-22T03:35:28.711Z,98293.91
2022-10-22T03:36:33.715Z,98292.34
2022-10-22T03:37:37.136Z,98289.03
2022-10-22T03:38:41.461Z,98294.31
2022-10-22T03:39:44.323Z,98289.03
2022-10-22T03:40:48.343Z,98279.63
2022-10-22T03:41:51.972Z,98278.81
2022-10-22T03:42:55.813Z,98275.31
2022-10-22T03:43:58.533Z,98273.53
2022-10-22T03:45:02.236Z,98268.50
2022-10-22T03:46:05.211Z,98266.72
2022-10-22T03:47:09.031Z,98264.97
2022-10-22T03:48:11.764Z,98260.75
2022-10-22T03:49:17.001Z,98256.41
2022-10-22T03:50:19.831Z,98251.34
2022-10-22T03:51:23.669Z,98243.66
2022-10-22T03:52:26.463Z,98248.94
2022-10-22T03:53:30.223Z,98255.88
2022-10-22T03:54:33.000Z,98254.94
2022-10-22T03:55:38.343Z,98261.97
2022-10-22T03:56:43.194Z,98257.63
2022-10-22T03:57:46.102Z,98259.28
2022-10-22T03:58:49.870Z,98261.75
2022-10-22T03:59:52.603Z,98267.03
2022-10-22T04:00:56.834Z,98265.38
2022-10-22T04:01:59.706Z,98272.28
2022-10-22T04:03:04.033Z,98276.72
2022-10-22T04:04:06.921Z,98277.63
2022-10-22T04:06:21.584Z,98275.16
2022-10-22T04:07:25.262Z,98285.50
2022-10-22T04:08:27.983Z,98280.41
2022-10-22T04:09:32.867Z,98275.06
2022-10-22T04:10:36.116Z,98274.13
2022-10-22T04:11:40.382Z,98265.44
2022-10-22T04:12:43.603Z,98265.44
2022-10-22T04:13:47.332Z,98273.28
2022-10-22T04:14:50.093Z,98271.75
2022-10-22T04:15:54.894Z,98275.22
2022-10-22T04:16:57.552Z,98277.00
2022-10-22T04:18:01.273Z,98272.66
2022-10-22T04:19:04.034Z,98274.41
2022-10-22T04:20:08.960Z,98278.75
2022-10-22T04:21:14.792Z,98280.50
2022-10-22T04:22:18.813Z,98283.72
2022-10-22T04:23:23.383Z,98288.78
2022-10-22T04:24:32.197Z,98284.38
2022-10-22T04:25:34.880Z,98293.03
2022-10-22T04:26:39.172Z,98291.25
2022-10-22T04:27:42.147Z,98287.84
2022-10-22T04:28:46.921Z,98280.75
2022-10-22T04:29:49.708Z,98290.06
2022-10-22T04:30:54.289Z,98285.53
2022-10-22T04:31:57.062Z,98292.34
2022-10-22T04:33:00.855Z,98298.34
2022-10-22T04:34:03.535Z,98296.50
2022-10-22T04:35:08.353Z,98286.88
2022-10-22T04:36:14.960Z,98286.88
2022-10-22T04:37:18.782Z,98282.47
2022-10-22T04:38:21.613Z,98277.31
2022-10-22T04:39:25.381Z,98270.28
2022-10-22T04:40:28.126Z,98268.50
2022-10-22T04:41:34.432Z,98264.19
2022-10-22T04:42:37.910Z,98265.00
2022-10-22T04:43:41.993Z,98257.19
2022-10-22T04:44:46.883Z,98257.06
2022-10-22T04:45:49.548Z,98257.88
2022-10-22T04:46:53.360Z,98257.06
2022-10-22T04:47:56.023Z,98250.97
2022-10-22T04:49:00.230Z,98246.44
2022-10-22T04:50:09.721Z,98248.63
2022-10-22T04:51:16.572Z,98249.97
2022-10-22T04:52:20.302Z,98246.25
2022-10-22T04:53:22.994Z,98250.19
2022-10-22T04:54:29.135Z,98244.50
2022-10-22T04:55:36.404Z,98238.84
2022-10-22T04:56:40.774Z,98234.91
2022-10-22T04:57:45.162Z,98237.13
2022-10-22T04:58:49.763Z,98236.69
2022-10-22T04:59:54.500Z,98228.72
2022-10-22T05:00:57.936Z,98221.59
2022-10-22T05:02:03.421Z,98214.47
2022-10-22T05:03:06.127Z,98218.69
2022-10-22T05:04:14.351Z,98211.66
2022-10-22T05:05:17.713Z,98215.16
2022-10-22T05:06:23.930Z,98222.94
2022-10-22T05:07:29.683Z,98220.53
2022-10-22T05:08:33.585Z,98219.81
2022-10-22T05:09:36.362Z,98211.44
2022-10-22T05:10:40.074Z,98207.50
2022-10-22T05:11:46.431Z,98209.38
2022-10-22T05:12:50.324Z,98210.63
2022-10-22T05:13:53.422Z,98206.59
2022-10-22T05:14:57.362Z,98206.91
2022-10-22T05:16:02.025Z,98213.19
2022-10-22T05:17:05.760Z,98211.78
2022-10-22T05:18:08.473Z,98219.59
2022-10-22T05:19:17.053Z,98226.75
2022-10-22T05:20:19.683Z,98224.34
2022-10-22T05:21:25.050Z,98225.28
2022-10-22T05:22:28.091Z,98237.38
2022-10-22T05:23:31.864Z,98241.63
2022-10-22T05:24:37.436Z,98242.34
2022-10-22T05:25:40.262Z,98250.91
2022-10-22T05:26:44.012Z,98253.31
2022-10-22T05:27:50.181Z,98259.19
2022-10-22T05:28:54.133Z,98257.44
2022-10-22T05:29:56.830Z,98250.53
2022-10-22T05:31:02.091Z,98257.25
2022-10-22T05:32:05.234Z,98260.53
2022-10-22T05:33:09.017Z,98263.13
2022-10-22T05:34:11.751Z,98257.97
2022-10-22T05:35:15.593Z,98263.97
2022-10-22T05:36:19.863Z,98262.31
2022-10-22T05:37:25.065Z,98268.41
2022-10-22T05:38:27.868Z,98273.56
2022-10-22T05:39:31.642Z,98275.44
2022-10-22T05:40:34.421Z,98279.88
2022-10-22T05:41:38.348Z,98274.81
2022-10-22T05:42:41.346Z,98275.75
2022-10-22T05:43:45.532Z,98272.53
2022-10-22T05:44:48.918Z,98279.44
2022-10-22T05:45:52.652Z,98283.78
2022-10-22T05:46:56.472Z,98290.44
2022-10-22T05:47:59.121Z,98285.50
2022-10-22T05:49:05.184Z,98285.50
2022-10-22T05:50:08.762Z,98287.38
2022-10-22T05:51:13.948Z,98284.06
2022-10-22T05:52:16.764Z,98275.50
2022-10-22T05:53:21.932Z,98273.06
2022-10-22T05:54:24.872Z,98275.16
2022-10-22T05:55:28.743Z,98276.19
2022-10-22T05:56:32.472Z,98277.81
2022-10-22T05:57:36.236Z,98272.94
2022-10-22T05:58:39.464Z,98270.53
2022-10-22T05:59:43.263Z,98275.25
2022-10-22T06:00:45.983Z,98265.53
2022-10-22T06:01:49.764Z,98265.09
2022-10-22T06:02:52.514Z,98268.69
2022-10-22T06:03:57.313Z,98266.06
2022-10-22T06:05:00.408Z,98264.94
2022-10-22T06:06:06.632Z,98267.28
2022-10-22T06:07:11.281Z,98267.88
2022-10-22T06:08:18.194Z,98280.56
2022-10-22T06:09:26.818Z,98277.19
2022-10-22T06:10:29.734Z,98271.06
2022-10-22T06:11:35.165Z,98268.81
2022-10-22T06:12:38.493Z,98263.16
2022-10-22T06:13:42.421Z,98257.06
2022-10-22T06:14:45.124Z,98248.69
2022-10-22T06:15:48.924Z,98256.81
2022-10-22T06:16:52.203Z,98264.81
2022-10-22T06:17:55.931Z,98269.06
2022-10-22T06:19:00.281Z,98279.00
2022-10-22T06:21:14.304Z,98282.53
2022-10-22T06:22:17.004Z,98284.66
2022-10-22T06:23:20.860Z,98291.16
2022-10-22T06:24:25.010Z,98291.50
2022-10-22T06:25:28.754Z,98292.06
2022-10-22T06:26:33.041Z,98295.09
2022-10-22T06:27:35.726Z,98300.72
2022-10-22T06:28:40.002Z,98307.28
2022-10-22T06:29:42.721Z,98306.69
2022-10-22T06:30:46.732Z,98310.81
2022-10-22T06:31:50.920Z,98314.81
2022-10-22T06:32:53.644Z,98316.53
2022-10-22T06:33:58.078Z,98321.59
2022-10-22T06:35:00.832Z,98322.25
2022-10-22T06:36:08.418Z,98319.31
2022-10-22T06:37:14.082Z,98322.31
2022-10-22T06:38:16.915Z,98320.19
2022-10-22T06:39:20.665Z,98321.88
2022-10-22T06:40:24.866Z,98314.22
2022-10-22T06:41:29.597Z,98320.84
2022-10-22T06:42:32.501Z,98317.97
2022-10-22T06:43:36.336Z,98313.72
2022-10-22T06:44:39.134Z,98313.00
2022-10-22T06:45:42.877Z,98317.41
2022-10-22T06:46:45.823Z,98319.19
2022-10-22T06:47:49.527Z,98311.63
2022-10-22T06:48:53.696Z,98309.28
2022-10-22T06:49:57.421Z,98305.28
2022-10-22T06:51:02.511Z,98315.28
2022-10-22T06:52:06.448Z,98326.09
2022-10-22T06:53:09.317Z,98323.88
2022-10-22T06:54:13.401Z,98329.59
2022-10-22T06:55:16.281Z,98334.22
2022-10-22T06:56:23.315Z,98336.13
2022-10-22T06:57:26.051Z,98335.19
2022-10-22T06:58:29.722Z,98330.03
2022-10-22T06:59:32.602Z,98331.34
2022-10-22T07:00:36.442Z,98335.00
2022-10-22T07:01:39.607Z,98328.06
2022-10-22T07:02:43.672Z,98329.75
2022-10-22T07:03:46.755Z,98327.34
2022-10-22T07:04:50.521Z,98340.44
2022-10-22T07:05:53.199Z,98343.06
2022-10-22T07:06:57.006Z,98334.28
2022-10-22T07:07:59.682Z,98343.72
2022-10-22T07:09:03.511Z,98338.50
2022-10-22T07:10:07.410Z,98337.22
2022-10-22T07:11:14.064Z,98328.75
2022-10-22T07:12:18.210Z,98327.38
2022-10-22T07:13:21.985Z,98335.88
2022-10-22T07:14:24.632Z,98333.41
2022-10-22T07:15:28.320Z,98329.00
2022-10-22T07:16:32.546Z,98329.66
2022-10-22T07:17:36.457Z,98325.81
2022-10-22T07:18:41.141Z,98322.75
2022-10-22T07:19:48.417Z,98325.09
2022-10-22T07:20:53.911Z,98332.09
2022-10-22T07:21:57.655Z,98340.63
2022-10-22T07:23:00.332Z,98336.06
2022-10-22T07:24:04.087Z,98337.44
2022-10-22T07:25:07.599Z,98333.69
2022-10-22T07:26:13.161Z,98329.31
2022-10-22T07:27:17.252Z,98328.34
2022-10-22T07:28:21.369Z,98322.81
2022-10-22T07:29:24.083Z,98317.00
2022-10-22T07:30:27.783Z,98323.56
2022-10-22T07:31:30.614Z,98320.41
2022-10-22T07:32:34.332Z,98318.31
2022-10-22T07:33:37.556Z,98325.06
2022-10-22T07:34:43.835Z,98330.13
2022-10-22T07:35:47.108Z,98322.13
2022-10-22T07:36:51.343Z,98321.84
2022-10-22T07:37:54.033Z,98317.28
2022-10-22T07:38:59.553Z,98323.22
2022-10-22T07:40:03.866Z,98334.34
2022-10-22T07:41:08.114Z,98333.38
2022-10-22T07:42:12.384Z,98342.72
2022-10-22T07:43:16.535Z,98333.91
2022-10-22T07:44:20.323Z,98323.00
2022-10-22T07:45:23.111Z,98316.78
2022-10-22T07:46:27.692Z,98312.22
2022-10-22T07:47:30.422Z,98320.75
2022-10-22T07:48:34.254Z,98320.75
2022-10-22T07:49:37.062Z,98319.78
2022-10-22T07:50:40.927Z,98312.59
2022-10-22T07:51:43.622Z,98309.41
2022-10-22T07:52:47.572Z,98312.22
2022-10-22T07:53:50.542Z,98307.19
2022-10-22T07:54:54.303Z,98305.94
2022-10-22T07:55:57.173Z,98307.13
2022-10-22T07:57:00.962Z,98302.41
2022-10-22T07:58:03.632Z,98313.38
2022-10-22T07:59:08.842Z,98318.34
2022-10-22T08:00:12.806Z,98327.38
2022-10-22T08:01:16.572Z,98332.81
2022-10-22T08:02:19.331Z,98337.47
2022-10-22T08:03:23.080Z,98333.56
2022-10-22T08:04:26.793Z,98334.09
2022-10-22T08:05:29.512Z,98327.41
2022-10-22T08:06:33.216Z,98318.78
2022-10-22T08:07:35.973Z,98326.84
2022-10-22T08:08:40.288Z,98329.00
2022-10-22T08:09:43.024Z,98331.00
2022-10-22T08:10:47.941Z,98324.50
2022-10-22T08:11:51.104Z,98325.97
2022-10-22T08:12:54.881Z,98336.44
2022-10-22T08:13:57.587Z,98333.81
2022-10-22T08:15:02.743Z,98324.16
2022-10-22T08:16:05.950Z,98325.97
2022-10-22T08:17:09.713Z,98324.31
2022-10-22T08:18:12.423Z,98322.34
2022-10-22T08:19:18.960Z,98321.53
2022-10-22T08:20:21.743Z,98319.59
2022-10-22T08:21:25.493Z,98312.41
2022-10-22T08:22:28.342Z,98318.34
2022-10-22T08:23:32.003Z,98317.38
2022-10-22T08:24:34.747Z,98320.81
2022-10-22T08:25:38.636Z,98321.78
2022-10-22T08:26:42.903Z,98319.97
2022-10-22T08:27:45.722Z,98325.22
2022-10-22T08:28:49.402Z,98321.78
2022-10-22T08:29:52.143Z,98322.91
2022-10-22T08:30:57.570Z,98321.09
2022-10-22T08:32:02.982Z,98315.72
2022-10-22T08:33:06.920Z,98331.13
2022-10-22T08:34:09.691Z,98334.75
2022-10-22T08:35:16.811Z,98336.69
2022-10-22T08:36:20.631Z,98330.59
2022-10-22T08:37:24.549Z,98346.34
2022-10-22T08:38:28.309Z,98338.63
2022-10-22T08:39:31.031Z,98332.72
2022-10-22T08:40:37.504Z,98330.09
2022-10-22T08:41:46.990Z,98327.75
2022-10-22T08:43:19.345Z,98330.03
2022-10-22T08:44:41.345Z,98333.94
2022-10-22T08:45:47.953Z,98330.94
2022-10-22T08:47:02.034Z,98328.66
2022-10-22T08:48:11.973Z,98323.56
2022-10-22T08:49:21.042Z,98319.00
2022-10-22T08:50:29.560Z,98311.94
2022-10-22T08:51:35.301Z,98329.19
2022-10-22T08:52:40.252Z,98332.63
2022-10-22T08:53:51.081Z,98350.63
2022-10-22T08:54:58.352Z,98346.09
2022-10-22T08:56:01.201Z,98351.97
2022-10-22T08:57:20.953Z,98354.97
2022-10-22T08:58:28.516Z,98363.34
2022-10-22T08:59:38.684Z,98358.75
2022-10-22T09:00:46.267Z,98362.75
2022-10-22T09:01:51.256Z,98355.41
2022-10-22T09:03:06.589Z,98353.28
2022-10-22T09:04:15.782Z,98348.56
2022-10-22T09:05:34.411Z,98342.16
2022-10-22T09:06:39.332Z,98345.47
2022-10-22T09:07:43.743Z,98337.13
2022-10-22T09:08:48.698Z,98334.03
2022-10-22T09:09:52.531Z,98333.53
2022-10-22T09:10:59.234Z,98340.66
2022-10-22T09:12:04.902Z,98335.91
2022-10-22T09:13:09.482Z,98336.41
2022-10-22T09:15:23.812Z,98345.13
2022-10-22T09:16:34.941Z,98334.16
2022-10-22T09:17:41.874Z,98331.88
2022-10-22T09:18:56.232Z,98333.69
2022-10-22T09:20:05.195Z,98341.09
2022-10-22T09:21:18.033Z,98338.66
2022-10-22T09:22:28.291Z,98331.59
2022-10-22T09:23:37.716Z,98326.38
2022-10-22T09:24:44.684Z,98337.03
2022-10-22T09:25:49.382Z,98340.81
2022-10-22T09:26:53.112Z,98339.34
2022-10-22T09:27:58.772Z,98345.28
2022-10-22T09:29:03.183Z,98346.91
2022-10-22T09:30:08.059Z,98346.09
2022-10-22T09:31:12.694Z,98345.91
2022-10-22T09:32:17.204Z,98341.66
2022-10-22T09:33:24.966Z,98347.91
2022-10-22T09:34:31.333Z,98358.41
2022-10-22T09:35:34.848Z,98358.56
2022-10-22T09:36:39.725Z,98362.34
2022-10-22T09:37:50.852Z,98369.41
2022-10-22T09:38:55.132Z,98358.91
2022-10-22T09:39:59.370Z,98353.13
2022-10-22T09:41:05.190Z,98362.47
2022-10-22T09:42:08.516Z,98365.75
2022-10-22T09:43:14.180Z,98362.13
2022-10-22T09:44:18.615Z,98354.75
2022-10-22T09:45:25.178Z,98356.03
2022-10-22T09:46:29.591Z,98356.69
2022-10-22T09:47:43.464Z,98358.97
2022-10-22T09:49:02.473Z,98366.00
2022-10-22T09:50:14.001Z,98364.97
2022-10-22T09:51:21.702Z,98366.44
2022-10-22T09:52:28.264Z,98355.44
2022-10-22T09:53:33.492Z,98360.81
2022-10-22T09:54:40.225Z,98361.16
2022-10-22T09:55:45.033Z,98359.53
2022-10-22T09:56:53.441Z,98356.91
2022-10-22T09:57:59.152Z,98356.91
2022-10-22T09:59:03.317Z,98347.53
2022-10-22T10:00:09.821Z,98349.16
2022-10-22T10:01:19.219Z,98347.53
2022-10-22T10:02:39.239Z,98340.66
2022-10-22T10:03:43.012Z,98333.91
2022-10-22T10:04:48.236Z,98341.09
2022-10-22T10:05:55.162Z,98338.78
2022-10-22T10:06:58.591Z,98339.94
2022-10-22T10:08:09.992Z,98345.19
2022-10-22T10:09:16.405Z,98350.91
2022-10-22T10:10:26.571Z,98354.50
2022-10-22T10:11:33.314Z,98359.91
2022-10-22T10:12:43.280Z,98362.69
2022-10-22T10:13:54.819Z,98363.81
2022-10-22T10:15:04.733Z,98362.19
2022-10-22T10:16:14.215Z,98362.19
2022-10-22T10:17:24.811Z,98360.53
2022-10-22T10:18:36.799Z,98364.00
2022-10-22T10:19:48.844Z,98367.72
2022-10-22T10:20:57.103Z,98358.22
2022-10-22T10:22:07.652Z,98356.72
2022-10-22T10:23:20.629Z,98359.50
2022-10-22T10:24:33.803Z,98361.47
2022-10-22T10:25:51.369Z,98359.81
2022-10-22T10:26:57.569Z,98365.22
2022-10-22T10:28:09.372Z,98367.84
2022-10-22T10:29:23.623Z,98363.56
2022-10-22T10:30:26.518Z,98368.81
2022-10-22T10:31:40.234Z,98368.81
2022-10-22T10:33:07.508Z,98366.50
2022-10-22T10:34:19.710Z,98362.53
2022-10-22T10:35:26.710Z,98363.81
2022-10-22T10:36:43.291Z,98359.84
2022-10-22T10:37:49.815Z,98359.50
2022-10-22T10:38:59.251Z,98365.19
2022-10-22T10:40:15.127Z,98362.38
2022-10-22T10:41:22.720Z,98362.66
2022-10-22T10:42:33.001Z,98369.19
2022-10-22T10:43:43.205Z,98364.41
2022-10-22T10:44:53.180Z,98366.66
2022-10-22T10:46:02.845Z,98368.91
2022-10-22T10:47:17.318Z,98378.06
2022-10-22T10:48:29.203Z,98375.88
2022-10-22T10:49:35.121Z,98366.00
2022-10-22T10:50:44.102Z,98368.38
2022-10-22T10:51:55.764Z,98363.09
2022-10-22T10:53:05.242Z,98360.91
2022-10-22T10:54:28.247Z,98359.56
2022-10-22T10:55:34.502Z,98355.59
2022-10-22T10:56:40.154Z,98350.97
2022-10-22T10:57:50.191Z,98355.81
2022-10-22T10:58:59.282Z,98352.00
2022-10-22T11:00:07.311Z,98360.59
2022-10-22T11:01:24.994Z,98352.38
2022-10-22T11:03:09.543Z,98349.66
2022-10-22T11:04:25.252Z,98343.50
2022-10-22T11:05:33.872Z,98343.94
2022-10-22T11:06:39.422Z,98339.25
2022-10-22T11:07:50.957Z,98341.50
2022-10-22T11:09:01.112Z,98333.25
2022-10-22T11:10:09.403Z,98340.28
2022-10-22T11:12:27.921Z,98342.22
2022-10-22T11:13:34.910Z,98350.63
2022-10-22T11:14:42.341Z,98348.69
2022-10-22T11:15:51.069Z,98348.69
2022-10-22T11:16:57.487Z,98340.81
2022-10-22T11:18:07.710Z,98347.69
2022-10-22T11:19:22.578Z,98342.31
2022-10-22T11:20:32.044Z,98335.97
2022-10-22T11:21:40.144Z,98337.34
2022-10-22T11:23:16.922Z,98336.09
2022-10-22T11:24:19.870Z,98331.28
2022-10-22T11:25:29.092Z,98333.56
2022-10-22T11:26:39.868Z,98332.31
2022-10-22T11:27:50.758Z,98331.88
2022-10-22T11:28:59.251Z,98320.16
2022-10-22T11:30:05.151Z,98319.69
2022-10-22T11:31:15.028Z,98326.81
2022-10-22T11:32:19.612Z,98322.75
2022-10-22T11:33:26.665Z,98323.31
2022-10-22T11:34:34.429Z,98321.19
2022-10-22T11:35:41.227Z,98325.03
2022-10-22T11:36:45.441Z,98327.31
2022-10-22T11:37:51.154Z,98328.69
2022-10-22T11:38:55.278Z,98317.06
2022-10-22T11:40:03.274Z,98323.66
2022-10-22T11:41:14.298Z,98319.09
2022-10-22T11:42:21.230Z,98318.94
2022-10-22T11:43:30.192Z,98318.78
2022-10-22T11:44:46.632Z,98322.09
2022-10-22T11:45:51.983Z,98314.25
2022-10-22T11:46:57.851Z,98322.22
2022-10-22T11:48:09.735Z,98321.41
2022-10-22T11:49:23.841Z,98325.00
2022-10-22T11:50:29.003Z,98319.09
2022-10-22T11:51:34.171Z,98316.50
2022-10-22T11:52:43.073Z,98316.50
2022-10-22T11:53:56.714Z,98312.19
2022-10-22T11:55:04.111Z,98312.06
2022-10-22T11:56:26.281Z,98308.47
2022-10-22T11:57:31.504Z,98311.75
2022-10-22T11:58:39.781Z,98315.19
2022-10-22T11:59:50.987Z,98318.78
2022-10-22T12:00:54.408Z,98317.97
2022-10-22T12:01:58.285Z,98319.78
2022-10-22T12:03:04.254Z,98314.53
2022-10-22T12:04:21.596Z,98318.94
2022-10-22T12:05:35.408Z,98321.72
2022-10-22T12:06:57.360Z,98321.72
2022-10-22T12:08:02.762Z,98326.97
2022-10-22T12:09:09.021Z,98323.38
2022-10-22T12:10:18.482Z,98330.41
2022-10-22T12:11:24.085Z,98338.25
2022-10-22T12:12:28.957Z,98337.44
2022-10-22T12:13:34.081Z,98327.91
2022-10-22T12:14:41.951Z,98325.28
2022-10-22T12:15:48.360Z,98321.03
2022-10-22T12:16:56.910Z,98315.13
2022-10-22T12:18:01.405Z,98315.13
2022-10-22T12:19:09.154Z,98320.22
2022-10-22T12:20:14.031Z,98311.25
2022-10-22T12:21:18.225Z,98305.84
2022-10-22T12:22:22.710Z,98307.34
2022-10-22T12:23:30.912Z,98305.09
2022-10-22T12:24:38.363Z,98308.38
2022-10-22T12:25:42.094Z,98316.09
2022-10-22T12:26:46.324Z,98316.75
2022-10-22T12:27:53.603Z,98314.97
2022-10-22T12:28:59.331Z,98320.88
2022-10-22T12:30:04.272Z,98318.91
2022-10-22T12:31:07.109Z,98307.63
2022-10-22T12:32:15.714Z,98299.63
2022-10-22T12:33:20.791Z,98297.00
2022-10-22T12:34:26.192Z,98293.69
2022-10-22T12:35:30.121Z,98293.16
2022-10-22T12:36:37.871Z,98296.78
2022-10-22T12:37:41.826Z,98303.00
2022-10-22T12:38:48.522Z,98303.16
2022-10-22T12:39:53.760Z,98300.66
2022-10-22T12:40:57.309Z,98298.91
2022-10-22T12:42:01.067Z,98306.75
2022-10-22T12:43:10.984Z,98301.50
2022-10-22T12:44:16.852Z,98296.28
2022-10-22T12:45:20.287Z,98309.88
2022-10-22T12:46:24.070Z,98308.38
2022-10-22T12:47:26.761Z,98314.44
2022-10-22T12:48:34.547Z,98311.13
2022-10-22T12:49:42.568Z,98304.41
2022-10-22T12:50:47.630Z,98310.94
2022-10-22T12:51:51.712Z,98313.88
2022-10-22T12:52:55.353Z,98307.28
2022-10-22T12:54:01.782Z,98308.25
2022-10-22T12:55:08.596Z,98301.69
2022-10-22T12:56:14.052Z,98307.03
2022-10-22T12:57:20.153Z,98300.31
2022-10-22T12:58:27.245Z,98302.28
2022-10-22T12:59:34.627Z,98294.44
2022-10-22T13:00:37.510Z,98296.34
2022-10-22T13:01:42.444Z,98295.53
2022-10-22T13:02:45.752Z,98291.44
2022-10-22T13:03:51.921Z,98289.78